Time;durP1;ratioP1;P1;durP2;ratioP2;P2;SDS_P1;SDS_P2;PMS_P1;PMS_P2;Temp;Humidity;BMP_temperature;BMP_pressure;BME280_temperature;BME280_humidity;BME280_pressure;Samples;Min_cycle;Max_cycle;Signal;HPM_P1;HPM_P2
2023/01/11 00:01:10;;;;;;;7.13;3.60;;;;;;;;;;4902049;29;20081;-86
2023/01/11 00:03:45;;;;;;;6.18;3.33;;;;;;;;;;4894750;29;20468;-85
2023/01/11 00:06:22;;;;;;;4.80;2.67;;;;;;;;;;4916571;29;20127;-86
2023/01/11 00:08:54;;;;;;;4.20;3.22;;;;;;;;;;4898610;29;20127;-86
2023/01/11 00:11:31;;;;;;;4.53;2.90;;;;;;;;;;4911521;29;20141;-85
2023/01/11 00:14:00;;;;;;;6.07;3.15;;;;;;;;;;4915406;29;20056;-86
2023/01/11 00:16:31;;;;;;;5.03;3.17;;;;;;;;;;4901433;29;20577;-86
2023/01/11 00:19:05;;;;;;;10.10;3.65;;;;;;;;;;4897627;29;20510;-87
2023/01/11 00:21:36;;;;;;;7.38;3.03;;;;;;;;;;4895385;29;20131;-87
2023/01/11 00:24:03;;;;;;;4.22;2.80;;;;;;;;;;4895335;29;20051;-87
2023/01/11 00:26:31;;;;;;;4.57;3.38;;;;;;;;;;4926874;28;20055;-87
2023/01/11 00:29:01;;;;;;;4.50;3.00;;;;;;;;;;4970018;28;20119;-86
2023/01/11 00:31:31;;;;;;;6.43;3.20;;;;;;;;;;4956610;28;20047;-86
2023/01/11 00:34:05;;;;;;;6.55;3.88;;;;;;;;;;4970482;28;20054;-86
2023/01/11 00:36:33;;;;;;;3.53;2.88;;;;;;;;;;4972400;28;20050;-86
2023/01/11 00:39:01;;;;;;;3.67;2.72;;;;;;;;;;4976736;28;20046;-86
2023/01/11 00:49:53;;;;;;;4.20;2.55;;;;;;;;;;4972045;28;20061;-87
2023/01/11 00:52:21;;;;;;;5.00;3.22;;;;;;;;;;4991697;28;20102;-87
2023/01/11 00:54:48;;;;;;;3.25;2.65;;;;;;;;;;4974446;28;20046;-87
2023/01/11 00:57:16;;;;;;;3.63;2.70;;;;;;;;;;4974140;28;20038;-86
2023/01/11 00:59:43;;;;;;;7.65;3.15;;;;;;;;;;4969713;28;20035;-87
2023/01/11 01:02:11;;;;;;;4.13;3.13;;;;;;;;;;5052654;23;20065;-80
2023/01/11 01:04:39;;;;;;;4.15;2.97;;;;;;;;;;4951054;28;20453;-80
2023/01/11 01:07:07;;;;;;;4.32;3.00;;;;;;;;;;4967489;28;20067;-80
2023/01/11 01:09:34;;;;;;;3.78;2.58;;;;;;;;;;4966752;28;20686;-80
2023/01/11 01:12:02;;;;;;;3.97;3.70;;;;;;;;;;4968151;28;20078;-80
2023/01/11 01:14:31;;;;;;;5.35;3.08;;;;;;;;;;4960530;28;20074;-80
2023/01/11 01:17:06;;;;;;;4.47;2.97;;;;;;;;;;4977502;28;20046;-80
2023/01/11 01:19:35;;;;;;;3.28;2.97;;;;;;;;;;4981941;28;20062;-80
2023/01/11 01:22:02;;;;;;;3.97;2.40;;;;;;;;;;4962842;28;20047;-80
2023/01/11 01:24:30;;;;;;;4.13;3.30;;;;;;;;;;4968960;28;20051;-80
2023/01/11 01:26:58;;;;;;;5.03;2.85;;;;;;;;;;4948173;28;20039;-80
2023/01/11 01:29:25;;;;;;;3.65;2.90;;;;;;;;;;4963599;28;20057;-80
2023/01/11 01:31:53;;;;;;;11.27;3.28;;;;;;;;;;4960374;28;20471;-80
2023/01/11 01:34:20;;;;;;;3.65;2.80;;;;;;;;;;4961432;28;20054;-80
2023/01/11 01:36:48;;;;;;;5.82;3.10;;;;;;;;;;4964220;28;20074;-80
2023/01/11 01:39:15;;;;;;;6.00;2.80;;;;;;;;;;4966501;28;20061;-79
2023/01/11 01:41:43;;;;;;;4.00;2.53;;;;;;;;;;4951574;28;20046;-80
2023/01/11 01:44:29;;;;;;;3.38;2.85;;;;;;;;;;4963394;28;20375;-80
2023/01/11 01:46:56;;;;;;;3.95;2.85;;;;;;;;;;4960762;28;20038;-80
2023/01/11 01:49:24;;;;;;;6.78;3.30;;;;;;;;;;4947978;28;20050;-80
2023/01/11 01:51:53;;;;;;;3.28;2.97;;;;;;;;;;4949724;28;20534;-80
2023/01/11 01:54:27;;;;;;;4.20;2.40;;;;;;;;;;4962385;28;20584;-80
2023/01/11 01:57:01;;;;;;;4.55;2.55;;;;;;;;;;4965765;28;20055;-80
2023/01/11 01:59:30;;;;;;;4.80;3.00;;;;;;;;;;4966944;28;20109;-80
2023/01/11 02:01:58;;;;;;;4.57;2.97;;;;;;;;;;4964985;28;20428;-80
2023/01/11 02:04:46;;;;;;;6.60;3.03;;;;;;;;;;4947546;28;20501;-80
2023/01/11 02:07:19;;;;;;;5.50;2.88;;;;;;;;;;4966519;28;20520;-80
2023/01/11 02:09:56;;;;;;;3.80;2.67;;;;;;;;;;4966275;28;20070;-80
2023/01/11 02:12:25;;;;;;;4.40;3.15;;;;;;;;;;4965201;28;20390;-80
2023/01/11 02:14:56;;;;;;;;;;;;;;;;;;4965206;28;20070;-80
2023/01/11 02:17:24;;;;;;;4.60;2.53;;;;;;;;;;4967421;28;19980;-80
2023/01/11 02:19:54;;;;;;;3.20;2.45;;;;;;;;;;4962430;28;20051;-80
2023/01/11 02:22:30;;;;;;;2.75;2.42;;;;;;;;;;4963206;28;20057;-80
2023/01/11 02:25:01;;;;;;;4.63;3.03;;;;;;;;;;4972811;28;20042;-80
2023/01/11 02:27:31;;;;;;;4.80;3.22;;;;;;;;;;4967996;28;20166;-80
2023/01/11 02:30:01;;;;;;;5.40;2.95;;;;;;;;;;4964272;28;20054;-80
2023/01/11 02:32:55;;;;;;;6.32;2.70;;;;;;;;;;4960130;28;20106;-80
2023/01/11 02:35:30;;;;;;;2.47;2.28;;;;;;;;;;4978608;28;20043;-80
2023/01/11 02:38:00;;;;;;;5.57;2.75;;;;;;;;;;4971403;28;20228;-80
2023/01/11 02:40:33;;;;;;;5.32;2.58;;;;;;;;;;4959750;28;20055;-80
2023/01/11 02:46:00;;;;;;;7.38;2.80;;;;;;;;;;4958333;28;20062;-80
2023/01/11 02:48:28;;;;;;;5.88;3.20;;;;;;;;;;4962823;28;20070;-80
2023/01/11 02:50:58;;;;;;;4.85;3.00;;;;;;;;;;4953313;28;20524;-80
2023/01/11 02:53:30;;;;;;;3.40;3.05;;;;;;;;;;4964805;28;20046;-80
2023/01/11 02:56:01;;;;;;;3.90;3.10;;;;;;;;;;4966330;28;20086;-80
2023/01/11 02:58:31;;;;;;;3.53;2.78;;;;;;;;;;4967144;28;20137;-80
2023/01/11 03:00:59;;;;;;;3.17;2.30;;;;;;;;;;4968139;28;20102;-80
2023/01/11 03:03:26;;;;;;;3.80;2.83;;;;;;;;;;4964496;28;20047;-80
2023/01/11 03:06:02;;;;;;;5.05;3.25;;;;;;;;;;4961222;28;20462;-80
2023/01/11 03:08:37;;;;;;;4.65;2.78;;;;;;;;;;4971326;28;20039;-80
2023/01/11 03:11:06;;;;;;;3.47;2.67;;;;;;;;;;4958671;28;20133;-80
2023/01/11 03:13:52;;;;;;;3.05;2.60;;;;;;;;;;4974433;28;20082;-80
2023/01/11 03:16:24;;;;;;;2.92;2.60;;;;;;;;;;4948976;28;20125;-80
2023/01/11 03:18:52;;;;;;;;;;;;;;;;;;4958869;28;20130;-80
2023/01/11 03:21:38;;;;;;;4.07;2.80;;;;;;;;;;4968766;28;19964;-80
2023/01/11 03:24:05;;;;;;;2.90;2.47;;;;;;;;;;4967484;28;20407;-80
2023/01/11 03:26:33;;;;;;;2.78;2.53;;;;;;;;;;4959026;28;20057;-80
2023/01/11 03:29:18;;;;;;;4.90;3.58;;;;;;;;;;4964558;28;20042;-80
2023/01/11 03:31:52;;;;;;;5.72;2.50;;;;;;;;;;4965556;28;20125;-80
2023/01/11 03:34:20;;;;;;;3.70;2.63;;;;;;;;;;4956831;28;20053;-80
2023/01/11 03:36:50;;;;;;;3.35;2.63;;;;;;;;;;4959552;28;20055;-80
2023/01/11 03:39:25;;;;;;;2.72;2.53;;;;;;;;;;4969753;28;20055;-80
2023/01/11 03:41:56;;;;;;;6.50;2.88;;;;;;;;;;4968972;28;20069;-80
2023/01/11 03:44:26;;;;;;;5.18;2.60;;;;;;;;;;4970586;28;20054;-80
2023/01/11 03:46:57;;;;;;;4.68;2.97;;;;;;;;;;4969226;28;20055;-80
2023/01/11 03:49:28;;;;;;;5.28;3.20;;;;;;;;;;4963740;28;20051;-80
2023/01/11 03:51:57;;;;;;;5.75;3.20;;;;;;;;;;4969129;28;20057;-80
2023/01/11 03:54:26;;;;;;;3.50;2.95;;;;;;;;;;4970975;28;20054;-80
2023/01/11 03:56:58;;;;;;;6.72;3.35;;;;;;;;;;4969980;28;20081;-80
2023/01/11 03:59:26;;;;;;;2.95;2.67;;;;;;;;;;4969860;28;20055;-80
2023/01/11 04:01:54;;;;;;;3.60;2.97;;;;;;;;;;4967551;28;20034;-80
2023/01/11 04:04:21;;;;;;;6.25;3.45;;;;;;;;;;4973866;28;20110;-80
2023/01/11 04:06:49;;;;;;;3.55;2.80;;;;;;;;;;4972135;28;20055;-80
2023/01/11 04:09:17;;;;;;;6.47;3.38;;;;;;;;;;4965061;28;20051;-80
2023/01/11 04:11:44;;;;;;;6.32;2.92;;;;;;;;;;4966533;28;20055;-80
2023/01/11 04:14:12;;;;;;;7.07;3.05;;;;;;;;;;4952425;28;20405;-80
2023/01/11 04:16:39;;;;;;;4.20;3.80;;;;;;;;;;4962800;28;20053;-80
2023/01/11 04:19:06;;;;;;;6.90;3.22;;;;;;;;;;4979167;28;20051;-80
2023/01/11 04:21:34;;;;;;;4.05;3.20;;;;;;;;;;4963488;28;20058;-80
2023/01/11 04:24:04;;;;;;;4.05;3.28;;;;;;;;;;4965424;28;20118;-80
2023/01/11 04:26:32;;;;;;;5.45;3.40;;;;;;;;;;4962805;28;20143;-80
2023/01/11 04:28:59;;;;;;;5.20;3.10;;;;;;;;;;4965106;28;20074;-80
2023/01/11 04:31:26;;;;;;;4.68;2.97;;;;;;;;;;4972365;28;20546;-80
2023/01/11 04:33:54;;;;;;;3.28;2.70;;;;;;;;;;4969610;28;20051;-81
2023/01/11 04:36:21;;;;;;;6.20;3.63;;;;;;;;;;4950023;28;20361;-80
2023/01/11 04:38:49;;;;;;;4.60;3.45;;;;;;;;;;4969838;28;20137;-80
2023/01/11 04:44:02;;;;;;;4.70;3.30;;;;;;;;;;4962916;28;20055;-80
2023/01/11 04:46:29;;;;;;;3.97;3.50;;;;;;;;;;4965978;28;20047;-80
2023/01/11 04:48:57;;;;;;;4.75;3.28;;;;;;;;;;4948854;28;20051;-80
2023/01/11 04:51:24;;;;;;;3.55;3.15;;;;;;;;;;4963875;28;20062;-81
2023/01/11 04:53:52;;;;;;;4.55;3.33;;;;;;;;;;4957018;28;20082;-80
2023/01/11 04:56:19;;;;;;;5.63;3.20;;;;;;;;;;4960249;28;20394;-80
2023/01/11 04:58:47;;;;;;;3.53;3.08;;;;;;;;;;4965606;28;20051;-79
2023/01/11 05:01:15;;;;;;;8.52;3.78;;;;;;;;;;4965529;28;20043;-80
2023/01/11 05:03:44;;;;;;;5.05;3.58;;;;;;;;;;4965346;28;20054;-80
2023/01/11 05:06:12;;;;;;;4.43;3.55;;;;;;;;;;4960187;28;20473;-80
2023/01/11 05:08:39;;;;;;;4.47;2.78;;;;;;;;;;4967378;28;20057;-80
2023/01/11 05:11:07;;;;;;;5.70;2.90;;;;;;;;;;4963657;28;20034;-80
2023/01/11 05:13:40;;;;;;;5.38;2.97;;;;;;;;;;4951801;28;20146;-80
2023/01/11 05:16:22;;;;;;;4.47;3.40;;;;;;;;;;4963108;28;20098;-80
2023/01/11 05:18:51;;;;;;;3.38;2.95;;;;;;;;;;4965355;28;20051;-79
2023/01/11 05:21:20;;;;;;;6.78;3.28;;;;;;;;;;4960645;28;20043;-80
2023/01/11 05:23:47;;;;;;;4.00;3.13;;;;;;;;;;4980160;28;20051;-80
2023/01/11 05:26:21;;;;;;;5.47;3.33;;;;;;;;;;4980181;28;20121;-80
2023/01/11 05:28:49;;;;;;;4.97;3.33;;;;;;;;;;4973401;28;20043;-80
2023/01/11 05:31:17;;;;;;;3.47;3.17;;;;;;;;;;4959983;28;20560;-80
2023/01/11 05:33:44;;;;;;;4.70;3.35;;;;;;;;;;4967187;28;20131;-80
2023/01/11 05:36:16;;;;;;;3.80;3.28;;;;;;;;;;4962734;28;20061;-80
2023/01/11 05:38:47;;;;;;;5.40;2.90;;;;;;;;;;4966346;28;20576;-80
2023/01/11 05:41:15;;;;;;;4.00;2.22;;;;;;;;;;4965223;28;20563;-79
2023/01/11 05:46:30;;;;;;;6.68;2.95;;;;;;;;;;4964599;28;20413;-79
2023/01/11 05:48:58;;;;;;;2.60;2.30;;;;;;;;;;4958714;28;20054;-80
2023/01/11 05:51:26;;;;;;;5.18;2.85;;;;;;;;;;4965311;28;20460;-80
2023/01/11 05:53:53;;;;;;;6.10;2.97;;;;;;;;;;4962508;28;20568;-80
2023/01/11 05:56:21;;;;;;;3.30;2.78;;;;;;;;;;4960305;28;20042;-80
2023/01/11 05:58:49;;;;;;;4.03;2.13;;;;;;;;;;4965568;28;20536;-81
2023/01/11 06:01:17;;;;;;;5.13;3.05;;;;;;;;;;4962257;28;20540;-80
2023/01/11 06:03:45;;;;;;;5.88;3.60;;;;;;;;;;4963506;28;20057;-80
2023/01/11 06:06:13;;;;;;;5.47;2.72;;;;;;;;;;4960702;28;20053;-80
2023/01/11 06:08:41;;;;;;;7.07;3.03;;;;;;;;;;4966739;28;20063;-79
2023/01/11 06:11:08;;;;;;;4.35;3.38;;;;;;;;;;4961000;28;20047;-79
2023/01/11 06:13:35;;;;;;;8.85;2.97;;;;;;;;;;4949424;28;20458;-79
2023/01/11 06:16:09;;;;;;;4.10;3.30;;;;;;;;;;4982334;28;20754;-79
2023/01/11 06:18:42;;;;;;;3.38;2.50;;;;;;;;;;4977684;28;20046;-80
2023/01/11 06:21:10;;;;;;;5.75;3.08;;;;;;;;;;4968489;28;20062;-79
2023/01/11 06:23:38;;;;;;;4.25;3.05;;;;;;;;;;4969473;28;20421;-80
2023/01/11 06:26:07;;;;;;;5.05;3.20;;;;;;;;;;4963587;28;20085;-80
2023/01/11 06:28:36;;;;;;;6.88;3.35;;;;;;;;;;4970943;28;20042;-79
2023/01/11 06:31:04;;;;;;;4.15;2.90;;;;;;;;;;4964585;28;20047;-81
2023/01/11 06:33:31;;;;;;;5.40;4.95;;;;;;;;;;4966623;28;21845;-80
2023/01/11 06:36:01;;;;;;;4.53;3.15;;;;;;;;;;4968734;28;20222;-79
2023/01/11 06:38:29;;;;;;;4.47;2.75;;;;;;;;;;4968474;28;20056;-80
2023/01/11 06:40:57;;;;;;;6.60;3.28;;;;;;;;;;4955349;28;20050;-80
2023/01/11 06:43:25;;;;;;;4.90;3.22;;;;;;;;;;4949089;28;20416;-81
2023/01/11 06:45:53;;;;;;;3.03;2.72;;;;;;;;;;4972799;28;20057;-80
2023/01/11 06:48:21;;;;;;;4.70;3.30;;;;;;;;;;4973969;28;20106;-82
2023/01/11 06:50:58;;;;;;;7.30;3.92;;;;;;;;;;4974367;28;20055;-79
2023/01/11 06:53:26;;;;;;;4.20;3.40;;;;;;;;;;4970519;28;20131;-80
2023/01/11 06:55:56;;;;;;;5.45;4.65;;;;;;;;;;4963410;28;20094;-80
2023/01/11 06:58:24;;;;;;;8.75;6.25;;;;;;;;;;4962073;28;20043;-80
2023/01/11 07:01:17;;;;;;;16.15;10.88;;;;;;;;;;4979555;23;20043;-91
2023/01/11 07:11:43;;;;;;;10.73;6.57;;;;;;;;;;4983231;28;20039;-89
2023/01/11 07:14:47;;;;;;;13.05;6.97;;;;;;;;;;4912461;29;20136;-91
2023/01/11 07:21:44;;;;;;;5.85;5.25;;;;;;;;;;4904625;29;20071;-91
2023/01/11 07:37:35;;;;;;;5.93;3.85;;;;;;;;;;4910809;29;20064;-91
2023/01/11 07:40:47;;;;;;;;;;;;;;;;;;4896637;29;20126;-91
2023/01/11 07:44:14;;;;;;;;;;;;;;;;;;;;;
2023/01/11 07:48:29;;;;;;;;;;;;;;;;;;;;;
2023/01/11 08:00:37;;;;;;;6.30;3.90;;;;;;;;;;4865995;22;20041;-84
2023/01/11 08:03:05;;;;;;;12.02;4.60;;;;;;;;;;4999230;28;20061;-84
2023/01/11 08:05:33;;;;;;;5.55;4.50;;;;;;;;;;4980720;28;20050;-81
2023/01/11 08:08:00;;;;;;;12.10;4.25;;;;;;;;;;4997205;28;20047;-84
2023/01/11 08:10:28;;;;;;;5.40;3.58;;;;;;;;;;4980183;28;20070;-86
2023/01/11 08:15:42;;;;;;;4.43;4.03;;;;;;;;;;4980103;28;20086;-83
2023/01/11 08:18:11;;;;;;;5.97;3.90;;;;;;;;;;4996323;28;20126;-83
2023/01/11 08:20:39;;;;;;;6.78;4.32;;;;;;;;;;4979570;28;20050;-83
2023/01/11 08:23:07;;;;;;;6.10;4.40;;;;;;;;;;4994048;28;20046;-84
2023/01/11 08:25:35;;;;;;;4.47;3.55;;;;;;;;;;4988280;28;20042;-85
2023/01/11 08:28:03;;;;;;;4.30;3.90;;;;;;;;;;4993718;28;20413;-83
2023/01/11 08:30:32;;;;;;;4.43;4.03;;;;;;;;;;4994954;28;20439;-85
2023/01/11 08:33:02;;;;;;;3.13;2.92;;;;;;;;;;4977030;28;20050;-87
2023/01/11 08:35:31;;;;;;;3.67;3.38;;;;;;;;;;4977306;28;20065;-83
2023/01/11 08:37:58;;;;;;;5.50;4.35;;;;;;;;;;4968989;28;20121;-83
2023/01/11 08:40:26;;;;;;;3.95;3.30;;;;;;;;;;4997014;28;20073;-86
2023/01/11 08:42:57;;;;;;;3.55;3.25;;;;;;;;;;4975083;28;20138;-83
2023/01/11 08:45:24;;;;;;;5.50;5.00;;;;;;;;;;4994983;28;20093;-86
2023/01/11 08:47:52;;;;;;;3.95;3.60;;;;;;;;;;5008677;28;20050;-86
2023/01/11 08:50:20;;;;;;;3.33;3.03;;;;;;;;;;5003442;28;20053;-86
2023/01/11 08:52:49;;;;;;;4.00;3.60;;;;;;;;;;4991866;28;20066;-87
2023/01/11 08:55:17;;;;;;;4.05;3.42;;;;;;;;;;4993648;28;20166;-83
2023/01/11 08:57:44;;;;;;;4.05;3.60;;;;;;;;;;4997568;28;20121;-87
2023/01/11 09:00:12;;;;;;;4.68;3.42;;;;;;;;;;4998752;28;20050;-83
2023/01/11 09:02:40;;;;;;;7.57;4.35;;;;;;;;;;4997253;28;20058;-84
2023/01/11 09:05:08;;;;;;;7.82;4.05;;;;;;;;;;4996327;28;20065;-85
2023/01/11 09:07:35;;;;;;;6.38;4.70;;;;;;;;;;4978819;28;20082;-83
2023/01/11 09:10:03;;;;;;;6.85;3.47;;;;;;;;;;4967784;28;20677;-87
2023/01/11 09:12:31;;;;;;;6.75;4.40;;;;;;;;;;4998212;28;20050;-85
2023/01/11 09:14:59;;;;;;;4.75;3.35;;;;;;;;;;4998668;28;20061;-83
2023/01/11 09:17:27;;;;;;;5.05;3.95;;;;;;;;;;4999099;28;20080;-84
2023/01/11 09:19:54;;;;;;;4.05;3.50;;;;;;;;;;4997259;28;20046;-84
2023/01/11 09:22:21;;;;;;;3.58;3.28;;;;;;;;;;4979999;28;20123;-83
2023/01/11 09:24:49;;;;;;;4.68;3.78;;;;;;;;;;4981292;28;20106;-83
2023/01/11 09:27:17;;;;;;;3.83;3.42;;;;;;;;;;4999790;28;20051;-87
2023/01/11 09:29:45;;;;;;;4.45;4.10;;;;;;;;;;5000399;28;20054;-85
2023/01/11 09:32:13;;;;;;;4.38;3.53;;;;;;;;;;4985617;28;20102;-83
2023/01/11 09:34:42;;;;;;;3.53;3.33;;;;;;;;;;5001301;28;20109;-86
2023/01/11 09:37:11;;;;;;;7.13;6.60;;;;;;;;;;5006650;28;20047;-85
2023/01/11 09:39:40;;;;;;;3.97;3.03;;;;;;;;;;4981809;28;20046;-84
2023/01/11 09:42:14;;;;;;;4.47;3.30;;;;;;;;;;4996964;28;20051;-85
2023/01/11 09:44:56;;;;;;;3.63;3.10;;;;;;;;;;4996192;28;20082;-85
2023/01/11 09:47:24;;;;;;;;;;;;;;;;;;4991824;28;20042;-84
2023/01/11 09:49:56;;;;;;;3.25;2.95;;;;;;;;;;4967381;28;19929;-83
2023/01/11 09:52:39;;;;;;;6.78;3.83;;;;;;;;;;4973354;28;20070;-82
2023/01/11 09:55:18;;;;;;;3.58;3.28;;;;;;;;;;4992839;28;20066;-80
2023/01/11 09:57:50;;;;;;;4.57;3.47;;;;;;;;;;4991496;28;20471;-83
2023/01/11 10:00:18;;;;;;;;;;;;;;;;;;4976189;28;20479;-86
2023/01/11 10:02:55;;;;;;;4.40;2.70;;;;;;;;;;4992069;28;19949;-82
2023/01/11 10:05:44;;;;;;;4.32;3.50;;;;;;;;;;4991501;28;20142;-82
2023/01/11 10:08:26;;;;;;;3.47;2.58;;;;;;;;;;4975638;28;20050;-82
2023/01/11 10:11:34;;;;;;;3.10;2.88;;;;;;;;;;4989940;28;20034;-81
2023/01/11 10:14:37;;;;;;;3.17;2.97;;;;;;;;;;4973247;28;20453;-83
2023/01/11 10:17:24;;;;;;;;;;;;;;;;;;4993470;28;21404;-81
2023/01/11 10:20:12;;;;;;;4.65;2.85;;;;;;;;;;4967917;28;20302;-82
2023/01/11 10:22:42;;;;;;;2.97;2.50;;;;;;;;;;5010699;28;20255;-84
2023/01/11 10:25:22;;;;;;;3.13;2.67;;;;;;;;;;4992597;28;20313;-82
2023/01/11 10:28:06;;;;;;;2.63;2.42;;;;;;;;;;5009384;28;20058;-83
2023/01/11 10:36:34;;;;;;;3.42;2.97;;;;;;;;;;5007997;28;20052;-86
2023/01/11 10:39:30;;;;;;;4.15;3.75;;;;;;;;;;5010879;28;20054;-84
2023/01/11 10:42:09;;;;;;;2.63;2.42;;;;;;;;;;5018435;28;20492;-81
2023/01/11 10:44:45;;;;;;;4.25;2.42;;;;;;;;;;4994203;28;20122;-84
2023/01/11 10:47:15;;;;;;;2.95;2.75;;;;;;;;;;5012064;28;20507;-80
2023/01/11 10:49:52;;;;;;;4.18;3.63;;;;;;;;;;5012530;28;20049;-83
2023/01/11 10:52:32;;;;;;;2.58;2.38;;;;;;;;;;5012548;28;20265;-81
2023/01/11 10:55:01;;;;;;;2.78;2.45;;;;;;;;;;5013117;28;20057;-81
2023/01/11 10:57:29;;;;;;;3.00;2.80;;;;;;;;;;5012028;28;20050;-83
2023/01/11 11:00:17;;;;;;;3.30;3.00;;;;;;;;;;5012728;28;20125;-80
2023/01/11 11:02:56;;;;;;;3.72;3.42;;;;;;;;;;4993550;28;20077;-80
2023/01/11 11:05:34;;;;;;;2.75;2.47;;;;;;;;;;5016934;28;20080;-84
2023/01/11 11:08:10;;;;;;;2.40;2.30;;;;;;;;;;5015918;28;20057;-84
2023/01/11 11:10:40;;;;;;;3.90;2.72;;;;;;;;;;4999285;28;20480;-83
2023/01/11 11:13:28;;;;;;;3.00;2.78;;;;;;;;;;4993587;28;20125;-84
2023/01/11 11:16:12;;;;;;;21.38;19.35;;;;;;;;;;4988342;28;20047;-82
2023/01/11 11:18:41;;;;;;;5.53;3.10;;;;;;;;;;4984819;28;20070;-81
2023/01/11 11:21:21;;;;;;;2.88;2.65;;;;;;;;;;4995632;28;20054;-81
2023/01/11 11:23:53;;;;;;;2.70;2.50;;;;;;;;;;4987643;28;20505;-81
2023/01/11 11:26:22;;;;;;;2.63;2.33;;;;;;;;;;4976248;28;20042;-81
2023/01/11 11:29:00;;;;;;;2.65;2.45;;;;;;;;;;4959097;28;20054;-85
2023/01/11 11:31:28;;;;;;;2.60;2.40;;;;;;;;;;4976076;28;20437;-85
2023/01/11 11:33:57;;;;;;;2.78;2.58;;;;;;;;;;4996257;28;20066;-79
2023/01/11 11:36:25;;;;;;;3.15;2.85;;;;;;;;;;4995049;28;20046;-80
2023/01/11 11:39:08;;;;;;;4.43;2.80;;;;;;;;;;4993605;28;20504;-84
2023/01/11 11:41:47;;;;;;;9.00;8.45;;;;;;;;;;4995837;28;20152;-83
2023/01/11 11:44:17;;;;;;;2.67;2.42;;;;;;;;;;4982308;28;20225;-83
2023/01/11 11:46:57;;;;;;;4.35;4.03;;;;;;;;;;4997903;28;20497;-84
2023/01/11 11:49:25;;;;;;;2.85;2.65;;;;;;;;;;4978843;28;20515;-80
2023/01/11 11:51:53;;;;;;;2.60;2.40;;;;;;;;;;4995679;28;20686;-81
2023/01/11 11:54:21;;;;;;;3.65;3.08;;;;;;;;;;4975223;28;20046;-82
2023/01/11 11:56:48;;;;;;;2.63;2.42;;;;;;;;;;4988132;28;20070;-81
2023/01/11 11:59:19;;;;;;;2.13;1.98;;;;;;;;;;4994635;28;20052;-84
2023/01/11 12:01:49;;;;;;;2.97;2.78;;;;;;;;;;4972818;28;20062;-82
2023/01/11 12:04:18;;;;;;;2.83;2.50;;;;;;;;;;4976581;28;20042;-82
2023/01/11 12:06:47;;;;;;;3.30;3.00;;;;;;;;;;4977326;28;20398;-80
2023/01/11 12:09:34;;;;;;;3.42;2.05;;;;;;;;;;4995198;28;20125;-80
2023/01/11 12:12:03;;;;;;;2.55;2.35;;;;;;;;;;4977230;28;20085;-81
2023/01/11 12:14:33;;;;;;;4.32;2.75;;;;;;;;;;4994773;28;20416;-83
2023/01/11 12:17:15;;;;;;;2.45;2.25;;;;;;;;;;4994727;28;20092;-80
2023/01/11 12:19:46;;;;;;;2.45;2.17;;;;;;;;;;4976103;28;20052;-81
2023/01/11 12:22:22;;;;;;;2.60;2.40;;;;;;;;;;4993915;28;20050;-80
2023/01/11 12:25:04;;;;;;;1.90;1.80;;;;;;;;;;4986626;28;20062;-86
2023/01/11 12:27:31;;;;;;;;;;;;;;;;;;5004848;28;20539;-82
2023/01/11 12:30:07;;;;;;;2.20;2.00;;;;;;;;;;4997810;28;19921;-80
2023/01/11 12:32:44;;;;;;;2.90;2.63;;;;;;;;;;5000377;28;20042;-82
2023/01/11 12:35:24;;;;;;;3.30;2.67;;;;;;;;;;5001758;28;20069;-84
2023/01/11 12:37:52;;;;;;;3.47;2.63;;;;;;;;;;4995639;28;20559;-85
2023/01/11 12:40:25;;;;;;;3.47;2.60;;;;;;;;;;4994935;28;20050;-81
2023/01/11 12:43:15;;;;;;;2.78;2.53;;;;;;;;;;4991130;28;20089;-85
2023/01/11 12:46:03;;;;;;;3.22;2.08;;;;;;;;;;4990478;28;20574;-84
2023/01/11 12:48:40;;;;;;;2.60;2.25;;;;;;;;;;4995287;28;20058;-82
2023/01/11 12:51:26;;;;;;;3.65;3.35;;;;;;;;;;4995574;28;20042;-80
2023/01/11 12:53:56;;;;;;;2.30;2.10;;;;;;;;;;4992725;28;20109;-81
2023/01/11 12:56:35;;;;;;;2.88;2.20;;;;;;;;;;4992706;28;20050;-79
2023/01/11 12:59:09;;;;;;;2.22;2.10;;;;;;;;;;4993461;28;20066;-79
2023/01/11 13:01:37;;;;;;;2.35;2.15;;;;;;;;;;5007944;23;20304;-81
2023/01/11 13:04:08;;;;;;;3.53;3.10;;;;;;;;;;4991162;28;20077;-81
2023/01/11 13:06:45;;;;;;;2.80;2.58;;;;;;;;;;4991763;28;20113;-81
2023/01/11 13:09:12;;;;;;;4.20;3.05;;;;;;;;;;4971435;28;20535;-83
2023/01/11 13:11:49;;;;;;;2.80;2.42;;;;;;;;;;4971306;28;20057;-83
2023/01/11 13:14:27;;;;;;;4.65;2.42;;;;;;;;;;4970315;28;20093;-85
2023/01/11 13:16:55;;;;;;;2.88;2.55;;;;;;;;;;4987052;28;20132;-83
2023/01/11 13:19:31;;;;;;;2.63;2.42;;;;;;;;;;4988550;28;20058;-84
2023/01/11 13:22:03;;;;;;;3.13;2.75;;;;;;;;;;4990133;28;20049;-82
2023/01/11 13:24:31;;;;;;;3.42;2.50;;;;;;;;;;4991393;28;20098;-80
2023/01/11 13:27:04;;;;;;;2.13;2.00;;;;;;;;;;4998215;28;20046;-80
2023/01/11 13:29:34;;;;;;;3.28;2.13;;;;;;;;;;4998484;28;20214;-80
2023/01/11 13:32:04;;;;;;;3.08;2.30;;;;;;;;;;4975361;28;20097;-80
2023/01/11 13:34:38;;;;;;;33.90;30.80;;;;;;;;;;4994438;28;20077;-80
2023/01/11 13:37:08;;;;;;;2.42;2.22;;;;;;;;;;4989948;28;20056;-79
2023/01/11 13:39:38;;;;;;;4.00;2.42;;;;;;;;;;4988113;28;20095;-80
2023/01/11 13:42:15;;;;;;;4.47;2.65;;;;;;;;;;4987557;28;20172;-81
2023/01/11 13:44:56;;;;;;;3.90;3.20;;;;;;;;;;4989870;28;20735;-80
2023/01/11 13:47:44;;;;;;;2.15;1.95;;;;;;;;;;4988043;28;20092;-80
2023/01/11 13:50:37;;;;;;;2.70;2.50;;;;;;;;;;4987817;28;20042;-80
2023/01/11 13:53:15;;;;;;;2.58;2.35;;;;;;;;;;4984125;28;20050;-80
2023/01/11 13:56:06;;;;;;;2.42;2.25;;;;;;;;;;4988485;28;20053;-80
2023/01/11 13:58:44;;;;;;;4.05;3.65;;;;;;;;;;4988780;28;20050;-80
2023/01/11 14:01:14;;;;;;;4.38;2.85;;;;;;;;;;4987948;28;20797;-80
2023/01/11 14:03:55;;;;;;;3.15;2.85;;;;;;;;;;4970601;28;20089;-81
2023/01/11 14:06:41;;;;;;;3.40;2.90;;;;;;;;;;4987989;28;20052;-80
2023/01/11 14:09:14;;;;;;;4.10;3.40;;;;;;;;;;4989083;28;20102;-80
2023/01/11 14:11:42;;;;;;;3.50;3.20;;;;;;;;;;4988254;28;20073;-80
2023/01/11 14:14:21;;;;;;;3.15;2.80;;;;;;;;;;4987919;28;20137;-80
2023/01/11 14:17:01;;;;;;;3.38;3.00;;;;;;;;;;4988692;28;20064;-80
2023/01/11 14:19:37;;;;;;;3.20;2.90;;;;;;;;;;4988397;28;20073;-80
2023/01/11 14:22:14;;;;;;;6.05;2.90;;;;;;;;;;4988261;28;20054;-80
2023/01/11 14:24:47;;;;;;;4.20;3.08;;;;;;;;;;4988267;28;20496;-80
2023/01/11 14:27:17;;;;;;;3.08;2.63;;;;;;;;;;4990619;28;20046;-80
2023/01/11 14:30:00;;;;;;;5.38;3.17;;;;;;;;;;4990467;28;20056;-81
2023/01/11 14:32:28;;;;;;;3.60;3.30;;;;;;;;;;4971433;28;20460;-81
2023/01/11 14:35:14;;;;;;;3.20;2.85;;;;;;;;;;4989812;28;20054;-81
2023/01/11 14:37:41;;;;;;;2.95;2.65;;;;;;;;;;4988185;28;20059;-81
2023/01/11 14:40:41;;;;;;;3.00;2.80;;;;;;;;;;4972041;28;20473;-81
2023/01/11 14:43:14;;;;;;;4.25;3.95;;;;;;;;;;4943699;28;20077;-82
2023/01/11 14:46:05;;;;;;;3.30;3.00;;;;;;;;;;4985748;28;20452;-81
2023/01/11 14:49:01;;;;;;;3.05;2.70;;;;;;;;;;4989022;28;20046;-81
2023/01/11 14:51:37;;;;;;;2.65;2.45;;;;;;;;;;4987230;28;20125;-81
2023/01/11 14:54:11;;;;;;;5.53;3.10;;;;;;;;;;4988509;28;20050;-81
2023/01/11 14:56:41;;;;;;;6.45;2.92;;;;;;;;;;4997110;28;20570;-81
2023/01/11 14:59:44;;;;;;;3.38;3.08;;;;;;;;;;4993655;28;20049;-82
2023/01/11 15:02:16;;;;;;;4.13;2.80;;;;;;;;;;4894064;29;20105;-81
2023/01/11 15:04:53;;;;;;;3.95;3.25;;;;;;;;;;4972652;28;20089;-81
2023/01/11 15:07:21;;;;;;;4.05;2.85;;;;;;;;;;4990210;28;20049;-81
2023/01/11 15:09:49;;;;;;;4.82;4.45;;;;;;;;;;4987402;28;20083;-81
2023/01/11 15:12:18;;;;;;;7.78;5.95;;;;;;;;;;4973769;28;20112;-80
2023/01/11 15:14:53;;;;;;;4.80;4.32;;;;;;;;;;4988654;28;20475;-81
2023/01/11 15:20:09;;;;;;;5.00;3.85;;;;;;;;;;4969918;28;20046;-80
2023/01/11 15:22:37;;;;;;;4.43;3.75;;;;;;;;;;4983589;28;20042;-80
2023/01/11 15:25:19;;;;;;;6.55;4.13;;;;;;;;;;4991675;28;20141;-80
2023/01/11 15:27:47;;;;;;;3.42;3.13;;;;;;;;;;4989348;28;20039;-80
2023/01/11 15:30:26;;;;;;;10.05;4.28;;;;;;;;;;4988906;28;20051;-80
2023/01/11 15:33:14;;;;;;;6.25;4.57;;;;;;;;;;4993557;28;20515;-81
2023/01/11 15:35:41;;;;;;;5.85;5.00;;;;;;;;;;4998832;28;20054;-80
2023/01/11 15:38:18;;;;;;;6.80;4.78;;;;;;;;;;4985627;28;20054;-81
2023/01/11 15:40:46;;;;;;;10.27;5.70;;;;;;;;;;4988824;28;20254;-80
2023/01/11 15:43:36;;;;;;;6.25;5.50;;;;;;;;;;4988381;28;20058;-80
2023/01/11 15:49:05;;;;;;;6.07;5.03;;;;;;;;;;4993639;28;20050;-80
2023/01/11 15:51:51;;;;;;;4.53;4.05;;;;;;;;;;4976027;28;20129;-81
2023/01/11 15:54:27;;;;;;;5.18;4.00;;;;;;;;;;4992120;28;20058;-81
2023/01/11 15:57:11;;;;;;;5.63;3.45;;;;;;;;;;4972536;28;20089;-80
2023/01/11 15:59:50;;;;;;;3.72;3.40;;;;;;;;;;4973618;28;20138;-80
2023/01/11 16:02:21;;;;;;;3.90;3.40;;;;;;;;;;4980442;28;20050;-81
2023/01/11 16:04:55;;;;;;;4.35;3.95;;;;;;;;;;4993249;28;20042;-81
2023/01/11 16:07:22;;;;;;;4.78;4.38;;;;;;;;;;4993015;28;20042;-81
2023/01/11 16:10:12;;;;;;;5.13;4.50;;;;;;;;;;4993534;28;20054;-81
2023/01/11 16:12:39;;;;;;;5.80;5.20;;;;;;;;;;4981364;28;20042;-81
2023/01/11 16:15:07;;;;;;;8.50;6.07;;;;;;;;;;4993421;28;20054;-80
2023/01/11 16:17:37;;;;;;;6.20;5.60;;;;;;;;;;4993274;28;20507;-80
2023/01/11 16:20:19;;;;;;;5.88;5.28;;;;;;;;;;4994002;28;20069;-82
2023/01/11 16:22:57;;;;;;;7.43;5.40;;;;;;;;;;4990826;28;20057;-81
2023/01/11 16:25:27;;;;;;;7.10;5.28;;;;;;;;;;4990118;28;20137;-81
2023/01/11 16:27:55;;;;;;;6.90;5.80;;;;;;;;;;4961479;28;20078;-81